Time;durP1;ratioP1;P1;durP2;ratioP2;P2;SDS_P1;SDS_P2;PMS_P1;PMS_P2;Temp;Humidity;BMP_temperature;BMP_pressure;BME280_temperature;BME280_humidity;BME280_pressure;Samples;Min_cycle;Max_cycle;Signal;HPM_P1;HPM_P2
2022/07/25 04:20:12;;;;;;;9.65;5.85;;;21.00;99.90;;;-144.05;47.70;125687.94;6107908;23;20029;-90
2022/07/25 04:23:02;;;;;;;7.65;5.10;;;21.10;99.90;;;-144.05;47.67;125687.94;6108938;23;20010;-87
2022/07/25 04:25:52;;;;;;;6.65;5.55;;;21.10;99.90;;;-144.05;47.82;125687.94;6135912;23;20025;-88
2022/07/25 04:28:40;;;;;;;6.22;5.13;;;21.10;99.90;;;-144.05;47.60;125687.94;6112704;23;20016;-86
2022/07/25 04:31:10;;;;;;;10.00;6.07;;;21.10;99.90;;;-144.05;47.45;125687.94;6106557;23;20064;-86
2022/07/25 04:35:14;;;;;;;8.20;5.70;;;21.30;99.90;;;-144.05;47.24;125687.94;6136024;23;20033;-89
2022/07/25 04:38:52;;;;;;;6.43;4.63;;;21.40;99.90;;;-144.05;46.49;125687.94;6051277;23;20014;-89
2022/07/25 04:42:22;;;;;;;8.35;5.95;;;21.60;99.90;;;-144.05;46.00;125687.94;5938289;24;20024;-87
2022/07/25 04:49:49;;;;;;;6.30;4.68;;;22.00;99.90;;;-144.05;44.94;125687.94;5924037;24;20053;-89
2022/07/25 04:52:26;;;;;;;6.03;4.95;;;22.30;99.90;;;-144.05;44.56;125687.94;6011455;23;20011;-89
2022/07/25 04:55:14;;;;;;;6.22;4.85;;;22.40;99.90;;;-144.05;44.05;125687.94;6078862;23;20015;-91
2022/07/25 04:57:47;;;;;;;6.65;5.20;;;22.60;99.90;;;-144.05;43.97;125687.94;6080866;23;20024;-87
2022/07/25 05:00:31;;;;;;;7.32;5.47;;;22.80;99.90;;;-144.05;43.17;125687.94;6063137;23;20007;-87
2022/07/25 05:03:04;;;;;;;6.05;5.07;;;23.00;99.90;;;-144.05;42.75;125687.94;6062280;23;20011;-86
2022/07/25 05:05:35;;;;;;;6.20;5.10;;;23.20;99.90;;;-144.05;42.95;125687.94;6074071;23;20010;-87
2022/07/25 05:08:08;;;;;;;7.13;4.97;;;23.40;99.90;;;-144.05;42.20;125687.94;6143544;23;20018;-85
2022/07/25 05:10:45;;;;;;;6.88;5.20;;;23.60;99.90;;;-144.05;41.88;125687.94;6121145;23;19994;-86
2022/07/25 05:13:27;;;;;;;6.13;4.43;;;23.80;99.90;;;-144.05;41.15;125687.94;6120600;23;20010;-89
2022/07/25 05:16:01;;;;;;;7.30;5.32;;;24.00;99.90;;;-144.05;41.30;125687.94;6144664;23;20010;-89
2022/07/25 05:18:34;;;;;;;9.00;5.05;;;24.10;99.90;;;-144.05;41.13;125687.94;6144005;23;20006;-87
2022/07/25 05:21:11;;;;;;;8.95;4.95;;;24.10;99.90;;;-144.05;41.07;125687.94;6145188;23;20029;-88
2022/07/25 05:23:40;;;;;;;7.80;4.82;;;24.00;99.90;;;-144.05;40.97;125687.94;6143112;23;20025;-88
2022/07/25 05:26:13;;;;;;;7.90;4.80;;;24.00;99.90;;;-144.05;40.95;125687.94;6142195;23;20054;-90
2022/07/25 05:28:45;;;;;;;7.00;5.25;;;24.20;99.90;;;-144.05;40.37;125687.94;6143866;23;20037;-89
2022/07/25 05:31:25;;;;;;;5.20;4.63;;;24.30;99.90;;;-144.05;39.96;125687.94;6138627;23;20010;-89
2022/07/25 05:33:59;;;;;;;6.35;5.05;;;24.50;99.90;;;-144.05;39.33;125687.94;6139346;23;20006;-88
2022/07/25 05:36:39;;;;;;;7.65;4.53;;;24.70;99.90;;;-144.05;39.49;125687.94;6141300;23;20006;-88
2022/07/25 05:39:08;;;;;;;5.97;4.70;;;24.80;99.90;;;-144.05;39.14;125687.94;6115981;23;20002;-87
2022/07/25 05:41:37;;;;;;;5.53;4.50;;;25.00;99.90;;;-144.05;38.84;125687.94;6117329;23;20016;-86
2022/07/25 05:44:08;;;;;;;5.20;4.60;;;25.20;99.90;;;-144.05;38.75;125687.94;6140990;23;19997;-89
2022/07/25 05:47:12;;;;;;;6.13;4.50;;;25.30;99.90;;;-144.05;38.61;125687.94;6115168;23;20029;-89
2022/07/25 05:50:14;;;;;;;5.90;4.40;;;25.30;99.90;;;-144.05;38.24;125687.94;6139477;23;20020;-90
2022/07/25 05:52:44;;;;;;;6.10;4.45;;;25.30;99.90;;;-144.05;38.06;125687.94;6137038;23;20065;-88
2022/07/25 05:55:12;;;;;;;7.00;4.88;;;25.40;99.90;;;-144.05;37.82;125687.94;6137549;23;20442;-87
2022/07/25 05:57:45;;;;;;;9.23;5.20;;;25.50;99.90;;;-144.05;38.04;125687.94;6135455;23;20073;-88
2022/07/25 06:00:31;;;;;;;10.68;5.00;;;25.50;99.90;;;-144.05;37.84;125687.94;6136136;23;20017;-89
2022/07/25 06:02:59;;;;;;;5.35;4.53;;;25.60;99.90;;;-144.05;38.42;125687.94;6111463;23;20010;-87
2022/07/25 06:05:26;;;;;;;7.28;5.18;;;25.50;99.90;;;-144.05;38.63;125687.94;6136307;23;20070;-88
2022/07/25 06:07:53;;;;;;;7.90;4.38;;;25.60;99.90;;;-144.05;38.09;125687.94;6109234;23;20014;-88
2022/07/25 06:10:20;;;;;;;8.15;4.25;;;25.80;99.90;;;-144.05;37.71;125687.94;6134283;23;20040;-87
2022/07/25 06:12:47;;;;;;;5.28;4.30;;;26.00;99.90;;;-144.05;37.63;125687.94;6134057;23;20010;-87
2022/07/25 06:15:16;;;;;;;5.45;4.32;;;26.30;99.90;;;-144.05;37.54;125687.94;6132631;23;20440;-89
2022/07/25 06:17:41;;;;;;;6.00;4.32;;;26.30;99.90;;;-144.05;37.28;125687.94;6132981;23;20013;-87
2022/07/25 06:20:08;;;;;;;5.20;4.45;;;26.40;99.70;;;-144.05;37.16;125687.94;6132998;23;20470;-87
2022/07/25 06:22:34;;;;;;;5.07;4.57;;;26.50;99.50;;;-144.05;36.95;125687.94;6131863;23;20028;-87
2022/07/25 06:25:04;;;;;;;6.93;5.00;;;26.70;98.60;;;-144.05;36.85;125687.94;6133209;23;20069;-88
2022/07/25 06:27:31;;;;;;;7.93;5.00;;;26.90;98.50;;;-144.05;36.55;125687.94;6133992;23;20069;-87
2022/07/25 06:29:57;;;;;;;6.30;4.82;;;27.10;97.60;;;-144.05;36.04;125687.94;6108050;23;20033;-89
2022/07/25 06:32:23;;;;;;;7.55;5.10;;;27.20;95.90;;;-144.05;36.46;125687.94;6109071;23;20014;-88
2022/07/25 06:34:49;;;;;;;8.57;4.40;;;27.00;95.80;;;-144.05;36.90;125687.94;6132953;23;20010;-89
2022/07/25 06:37:15;;;;;;;5.63;4.20;;;26.90;96.60;;;-144.05;36.78;125687.94;6134843;23;20009;-87
2022/07/25 06:39:42;;;;;;;7.68;5.30;;;26.80;96.20;;;-144.05;37.15;125687.94;6135580;23;20194;-88
2022/07/25 06:42:08;;;;;;;6.00;5.38;;;26.60;96.60;;;-144.05;37.72;125687.94;6110427;23;20344;-86
2022/07/25 06:44:34;;;;;;;6.82;4.57;;;26.50;97.80;;;-144.05;37.95;125687.94;6135568;23;20006;-89
2022/07/25 06:47:02;;;;;;;7.25;4.18;;;26.50;98.50;;;-144.05;38.09;125687.94;6138702;23;20029;-86
2022/07/25 06:49:29;;;;;;;6.68;4.63;;;26.50;98.90;;;-144.05;38.14;125687.94;6123882;23;20086;-88
2022/07/25 06:51:55;;;;;;;6.38;5.13;;;26.60;99.10;;;-144.05;37.94;125687.94;6085561;23;20415;-87
2022/07/25 06:54:21;;;;;;;6.63;4.93;;;26.60;98.90;;;-144.05;38.15;125687.94;6132566;23;20064;-87
2022/07/25 06:56:47;;;;;;;6.88;5.22;;;26.70;99.80;;;-144.05;37.35;125687.94;6106851;23;20014;-88
2022/07/25 06:59:14;;;;;;;7.10;4.80;;;26.90;97.90;;;-144.05;37.55;125687.94;6108936;23;20009;-86
2022/07/25 07:01:40;;;;;;;8.82;5.00;;;26.90;98.60;;;-144.05;37.21;125687.94;6133708;23;20420;-88
2022/07/25 07:04:06;;;;;;;6.57;4.55;;;26.90;97.20;;;-144.05;37.44;125687.94;6131935;23;20100;-88
2022/07/25 07:06:32;;;;;;;6.47;4.70;;;26.90;97.70;;;-144.05;37.33;125687.94;6130452;23;20016;-89
2022/07/25 07:08:58;;;;;;;6.47;5.10;;;27.20;97.80;;;-144.05;36.53;125687.94;6130103;23;20080;-91
2022/07/25 07:11:24;;;;;;;8.35;4.90;;;27.60;96.80;;;-144.05;36.27;125687.94;6130485;23;20428;-86
2022/07/25 07:13:50;;;;;;;8.20;5.25;;;27.60;95.90;;;-144.05;36.08;125687.94;6132336;23;20064;-86
2022/07/25 07:16:15;;;;;;;5.22;4.40;;;27.50;95.00;;;-144.05;36.20;125687.94;6132458;23;20037;-89
2022/07/25 07:18:41;;;;;;;5.70;4.85;;;27.50;94.50;;;-144.05;36.30;125687.94;6133693;23;20026;-88
2022/07/25 07:21:08;;;;;;;6.63;4.82;;;27.40;93.90;;;-144.05;36.43;125687.94;6110521;23;20006;-89
2022/07/25 07:23:36;;;;;;;6.85;4.68;;;27.30;94.00;;;-144.05;36.26;125687.94;6137217;23;20005;-88
2022/07/25 07:26:02;;;;;;;6.20;5.03;;;27.20;93.70;;;-144.05;36.19;125687.94;6133449;23;20321;-87
2022/07/25 07:28:28;;;;;;;7.18;4.93;;;27.20;93.40;;;-144.05;36.30;125687.94;6109809;23;20081;-87
2022/07/25 07:30:55;;;;;;;6.35;5.22;;;27.30;93.30;;;-144.05;36.68;125687.94;6135940;23;20006;-89
2022/07/25 07:33:21;;;;;;;5.55;4.65;;;27.30;94.10;;;-144.05;36.16;125687.94;6110377;23;20037;-89
2022/07/25 07:35:48;;;;;;;7.03;4.97;;;27.30;93.50;;;-144.05;36.19;125687.94;6134159;23;20010;-87
2022/07/25 07:38:18;;;;;;;5.70;4.57;;;27.30;93.60;;;-144.05;36.37;125687.94;6134223;23;20041;-86
2022/07/25 07:40:44;;;;;;;7.47;5.10;;;27.20;93.50;;;-144.05;37.00;125687.94;6112162;23;20030;-89
2022/07/25 07:43:10;;;;;;;5.70;4.93;;;27.20;94.20;;;-144.05;36.78;125687.94;6135363;23;20031;-88
2022/07/25 07:45:37;;;;;;;6.28;5.35;;;27.10;94.60;;;-144.05;36.99;125687.94;6134139;23;20010;-88
2022/07/25 07:48:06;;;;;;;6.25;4.78;;;27.10;95.30;;;-144.05;36.71;125687.94;6135439;23;20377;-90
2022/07/25 07:50:32;;;;;;;5.45;4.95;;;27.20;94.20;;;-144.05;36.71;125687.94;6133934;23;20541;-88
2022/07/25 07:52:59;;;;;;;8.30;4.90;;;27.20;94.50;;;-144.05;37.13;125687.94;6110573;23;20014;-90
2022/07/25 07:55:44;;;;;;;6.28;5.10;;;27.30;95.10;;;-144.05;36.88;125687.94;6138124;23;20029;-88
2022/07/25 07:58:17;;;;;;;6.20;5.15;;;27.40;94.80;;;-144.05;35.87;125687.94;6116256;23;20033;-90
2022/07/25 08:00:50;;;;;;;7.28;5.75;;;27.50;93.00;;;-144.05;36.45;125687.94;6136525;23;20006;-89
2022/07/25 08:03:20;;;;;;;6.70;5.43;;;27.60;93.70;;;-144.05;36.22;125687.94;6112057;23;20093;-88
2022/07/25 08:05:48;;;;;;;5.40;4.90;;;27.70;94.10;;;-144.05;36.11;125687.94;6112701;23;20029;-89
2022/07/25 08:08:15;;;;;;;7.05;5.15;;;27.80;93.60;;;-144.05;36.29;125687.94;6137016;23;20033;-90
2022/07/25 08:10:47;;;;;;;6.90;4.78;;;27.70;93.30;;;-144.05;36.22;125687.94;6135823;23;20133;-89
2022/07/25 08:13:24;;;;;;;6.22;5.32;;;27.70;92.80;;;-144.05;36.61;125687.94;6137175;23;20037;-90
2022/07/25 08:15:56;;;;;;;4.95;4.53;;;27.80;94.20;;;-144.05;36.47;125687.94;6144251;23;20037;-87
2022/07/25 08:18:25;;;;;;;5.68;5.07;;;27.90;94.10;;;-144.05;36.37;125687.94;6141950;23;20041;-89
2022/07/25 08:20:52;;;;;;;5.88;4.97;;;28.20;94.10;;;-144.05;34.86;125687.94;6116298;23;20021;-88
2022/07/25 08:23:19;;;;;;;8.00;5.30;;;29.10;92.30;;;-144.05;33.79;125687.94;6133959;23;20122;-88
2022/07/25 08:25:46;;;;;;;7.97;5.07;;;29.50;90.00;;;-144.05;33.87;125687.94;6132788;23;20006;-87
2022/07/25 08:28:14;;;;;;;8.48;4.88;;;29.50;88.40;;;-144.05;33.94;125687.94;6118376;23;20058;-88
2022/07/25 08:30:42;;;;;;;7.70;5.40;;;29.50;88.80;;;-144.05;34.18;125687.94;6114295;23;20463;-88
2022/07/25 08:33:14;;;;;;;5.90;5.15;;;29.50;88.20;;;-144.05;33.58;125687.94;6116492;23;20391;-90
2022/07/25 08:35:52;;;;;;;6.45;5.50;;;29.70;86.90;;;-144.05;33.08;125687.94;6111767;23;20018;-86
2022/07/25 08:46:06;;;;;;;6.13;5.05;;;30.70;77.80;;;-144.05;32.50;125687.94;6092929;23;20020;-89
2022/07/25 08:48:33;;;;;;;6.07;5.10;;;30.60;79.80;;;-144.05;32.25;125687.94;6115763;23;20021;-87
2022/07/25 08:53:35;;;;;;;7.40;4.68;;;30.80;78.50;;;-144.05;31.69;125687.94;6077384;23;20019;-90
2022/07/25 08:56:07;;;;;;;6.18;5.07;;;30.70;76.00;;;-144.05;31.71;125687.94;6061412;23;20002;-87
2022/07/25 08:58:33;;;;;;;8.13;5.07;;;30.60;75.40;;;-144.05;32.20;125687.94;6054334;23;20010;-91
2022/07/25 09:01:01;;;;;;;6.45;5.28;;;30.60;77.30;;;-144.05;32.19;125687.94;6059649;23;20021;-87
2022/07/25 09:03:31;;;;;;;7.00;4.75;;;30.60;77.00;;;-144.05;32.33;125687.94;6114019;23;20002;-87
2022/07/25 09:05:58;;;;;;;9.43;4.95;;;30.70;77.70;;;-144.05;32.35;125687.94;6089091;23;20015;-87
2022/07/25 09:08:28;;;;;;;6.50;4.75;;;30.80;77.50;;;-144.05;32.03;125687.94;6083025;23;20018;-87
2022/07/25 09:10:54;;;;;;;8.82;5.05;;;30.90;76.00;;;-144.05;31.41;125687.94;6110224;23;20058;-90
2022/07/25 09:13:22;;;;;;;5.35;4.60;;;30.90;73.90;;;-144.05;31.96;125687.94;6106002;23;20077;-88
2022/07/25 09:15:59;;;;;;;5.93;4.50;;;31.00;75.30;;;-144.05;32.91;125687.94;6111097;23;20357;-87
2022/07/25 09:18:44;;;;;;;6.55;4.60;;;30.90;79.40;;;-144.05;32.60;125687.94;6108137;23;20047;-89
2022/07/25 09:21:13;;;;;;;5.15;4.20;;;30.60;77.70;;;-144.05;32.69;125687.94;6082322;23;20394;-88
2022/07/25 09:23:41;;;;;;;8.25;5.10;;;30.30;75.50;;;-144.05;33.20;125687.94;6107477;23;20017;-87
2022/07/25 09:26:13;;;;;;;10.57;5.13;;;30.20;78.20;;;-144.05;32.90;125687.94;6085540;23;20038;-86
2022/07/25 09:28:50;;;;;;;7.40;4.95;;;30.00;76.30;;;-144.05;33.02;125687.94;6099988;23;20101;-87
2022/07/25 09:31:17;;;;;;;7.00;5.18;;;29.70;75.90;;;-144.05;34.11;125687.94;6099764;23;20013;-86
2022/07/25 09:33:58;;;;;;;7.63;5.20;;;29.50;79.80;;;-144.05;34.38;125687.94;6100860;23;20038;-87
2022/07/25 09:36:24;;;;;;;7.38;4.60;;;29.80;81.10;;;-144.05;33.63;125687.94;6114110;23;20026;-86
2022/07/25 09:39:01;;;;;;;6.68;5.47;;;30.30;82.10;;;-144.05;33.16;125687.94;6092721;23;20062;-87
2022/07/25 09:41:40;;;;;;;5.75;4.55;;;30.60;80.00;;;-144.05;32.53;125687.94;6107851;23;20013;-90
2022/07/25 09:44:21;;;;;;;5.97;5.38;;;30.70;77.40;;;-144.05;32.91;125687.94;6082067;23;20010;-91
2022/07/25 09:46:48;;;;;;;10.18;5.30;;;30.60;78.00;;;-144.05;31.62;125687.94;6108607;23;20093;-89
2022/07/25 09:49:15;;;;;;;7.45;5.05;;;31.00;73.90;;;-144.05;31.32;125687.94;6110567;23;20349;-89
2022/07/25 09:51:42;;;;;;;7.65;5.55;;;31.20;73.00;;;-144.05;31.83;125687.94;6112419;23;19994;-90
2022/07/25 09:54:10;;;;;;;6.75;4.88;;;31.70;76.20;;;-144.05;30.92;125687.94;6095812;23;20002;-89
2022/07/25 09:56:36;;;;;;;7.13;5.25;;;31.90;71.00;;;-144.05;31.16;125687.94;6096625;23;20022;-90
2022/07/25 09:59:04;;;;;;;6.47;4.75;;;32.00;72.30;;;-144.05;30.41;125687.94;6095690;23;20038;-90
2022/07/25 10:02:03;;;;;;;6.47;4.90;;;32.30;70.10;;;-144.05;30.56;125687.94;6112359;23;19998;-90
2022/07/25 10:05:15;;;;;;;9.27;5.35;;;32.60;70.60;;;-144.05;30.35;125687.94;6078345;23;20068;-90
2022/07/25 10:07:51;;;;;;;6.65;5.05;;;32.70;68.10;;;-144.05;31.20;125687.94;6103661;23;20006;-86
2022/07/25 10:10:28;;;;;;;6.47;5.53;;;32.10;69.80;;;-144.05;32.16;125687.94;6077349;23;20017;-88
2022/07/25 10:13:05;;;;;;;7.57;5.25;;;31.40;72.50;;;-144.05;32.47;125687.94;6075539;23;20041;-86
2022/07/25 10:15:48;;;;;;;8.27;5.15;;;31.00;73.60;;;-144.05;31.84;125687.94;6101240;23;20159;-90
2022/07/25 10:18:21;;;;;;;6.13;5.10;;;31.20;72.50;;;-144.05;32.26;125687.94;6100656;23;20028;-88
2022/07/25 10:20:55;;;;;;;7.38;5.22;;;31.20;72.40;;;-144.05;33.31;125687.94;6100767;23;20013;-88
2022/07/25 10:23:27;;;;;;;8.25;5.60;;;30.80;73.30;;;-144.05;33.93;125687.94;6100777;23;20003;-87
2022/07/25 10:26:07;;;;;;;5.93;4.90;;;30.50;75.10;;;-144.05;33.60;125687.94;6078569;23;20038;-89
2022/07/25 10:28:42;;;;;;;5.57;5.05;;;30.40;76.40;;;-144.05;33.75;125687.94;6117895;23;20017;-87
2022/07/25 10:31:20;;;;;;;9.98;5.90;;;30.40;76.40;;;-144.05;33.45;125687.94;6084094;23;20104;-89
2022/07/25 10:34:13;;;;;;;8.38;5.88;;;30.20;75.40;;;-144.05;33.33;125687.94;6083032;23;20014;-87
2022/07/25 10:36:54;;;;;;;7.72;5.32;;;29.90;74.80;;;-144.05;34.15;125687.94;6083709;23;20066;-89
2022/07/25 10:39:22;;;;;;;6.90;5.25;;;29.60;77.50;;;-144.05;34.51;125687.94;6107099;23;20014;-87
2022/07/25 10:41:59;;;;;;;7.53;5.30;;;29.20;76.70;;;-144.05;35.22;125687.94;6084400;23;20014;-91
2022/07/25 10:44:40;;;;;;;8.77;5.20;;;28.70;78.30;;;-144.05;35.76;125687.94;6110474;23;20086;-88
2022/07/25 10:47:10;;;;;;;11.82;5.15;;;28.30;79.80;;;-144.05;36.30;125687.94;6111276;23;20011;-89
2022/07/25 10:49:46;;;;;;;10.80;5.40;;;28.00;81.80;;;-144.05;37.13;125687.94;6091196;23;20074;-90
2022/07/25 10:52:19;;;;;;;5.70;5.10;;;27.80;85.50;;;-144.05;38.43;125687.94;6088967;23;20022;-88
2022/07/25 10:54:57;;;;;;;6.57;5.50;;;27.60;88.40;;;-144.05;38.01;125687.94;6113194;23;20020;-91
2022/07/25 10:57:26;;;;;;;5.97;4.85;;;27.40;88.00;;;-144.05;37.94;125687.94;6114303;23;20243;-90
2022/07/25 10:59:53;;;;;;;6.82;5.70;;;27.30;88.80;;;-144.05;38.03;125687.94;6090499;23;20017;-91
2022/07/25 11:02:25;;;;;;;9.27;5.78;;;27.40;90.20;;;-144.05;37.46;125687.94;6090981;23;20007;-92
2022/07/25 11:05:03;;;;;;;7.30;5.05;;;27.50;89.00;;;-144.05;37.79;125687.94;6116227;23;20013;-89
2022/07/25 11:07:36;;;;;;;7.93;5.13;;;27.50;90.10;;;-144.05;38.01;125687.94;6088919;23;20070;-90
2022/07/25 11:10:05;;;;;;;6.13;5.43;;;27.70;91.00;;;-144.05;37.60;125687.94;6088767;23;20010;-89
2022/07/25 11:12:32;;;;;;;6.00;5.40;;;27.90;91.30;;;-144.05;36.91;125687.94;6111921;23;20010;-89
2022/07/25 11:15:06;;;;;;;10.25;5.32;;;28.10;90.30;;;-144.05;36.81;125687.94;6113326;23;20118;-91
2022/07/25 11:17:33;;;;;;;8.25;5.60;;;28.30;90.30;;;-144.05;36.54;125687.94;6088200;23;20007;-91
2022/07/25 11:20:10;;;;;;;9.75;5.63;;;28.60;90.10;;;-144.05;35.95;125687.94;6113041;23;20013;-91
2022/07/25 11:22:36;;;;;;;10.07;5.47;;;29.40;89.80;;;-144.05;34.64;125687.94;6109384;23;20018;-89
2022/07/25 11:25:16;;;;;;;10.02;5.20;;;30.30;87.00;;;-144.05;33.21;125687.94;6086634;23;20085;-88
2022/07/25 11:27:42;;;;;;;7.28;5.22;;;30.70;80.30;;;-144.05;33.56;125687.94;6110977;23;20445;-90
2022/07/25 11:30:20;;;;;;;9.32;5.28;;;30.80;80.40;;;-144.05;33.67;125687.94;6108987;23;20034;-87
2022/07/25 11:32:55;;;;;;;8.93;5.93;;;31.10;81.40;;;-144.05;32.76;125687.94;6108145;23;20003;-89
2022/07/25 11:35:32;;;;;;;9.57;6.03;;;31.30;78.10;;;-144.05;32.21;125687.94;6112109;23;20011;-91
2022/07/25 11:38:01;;;;;;;9.48;5.80;;;31.40;75.90;;;-144.05;32.83;125687.94;6110326;23;20089;-88
2022/07/25 11:40:30;;;;;;;7.40;5.30;;;31.30;77.50;;;-144.05;32.42;125687.94;6085577;23;20006;-91
2022/07/25 11:42:59;;;;;;;6.65;5.35;;;31.60;76.20;;;-144.05;31.93;125687.94;6109824;23;20006;-88
2022/07/25 11:45:33;;;;;;;6.97;5.30;;;31.70;74.50;;;-144.05;31.99;125687.94;6108281;23;20014;-89
2022/07/25 11:48:12;;;;;;;10.38;5.85;;;31.70;74.40;;;-144.05;32.68;125687.94;6107432;23;20030;-87
2022/07/25 11:50:43;;;;;;;8.10;5.68;;;31.70;76.30;;;-144.05;32.44;125687.94;6109223;23;20010;-88
2022/07/25 11:53:14;;;;;;;8.55;5.75;;;31.90;76.20;;;-144.05;32.42;125687.94;6083680;23;20103;-90
2022/07/25 11:55:42;;;;;;;8.57;5.70;;;32.20;76.70;;;-144.05;31.74;125687.94;6115952;23;20013;-89
2022/07/25 11:58:13;;;;;;;8.05;6.53;;;32.50;74.10;;;-144.05;32.00;125687.94;6108216;23;20018;-91
2022/07/25 12:00:48;;;;;;;11.82;6.82;;;32.30;73.40;;;-144.05;32.87;125687.94;6110807;23;20341;-90
2022/07/25 12:03:21;;;;;;;10.73;6.63;;;31.60;73.70;;;-144.05;34.15;125687.94;6084302;23;20101;-91
2022/07/25 12:05:49;;;;;;;6.68;5.53;;;30.70;76.30;;;-144.05;34.91;125687.94;6110230;23;20010;-88
2022/07/25 12:08:23;;;;;;;9.68;5.10;;;30.40;79.20;;;-144.05;34.78;125687.94;6109312;23;20006;-90
2022/07/25 12:10:50;;;;;;;12.68;5.38;;;30.30;81.30;;;-144.05;34.15;125687.94;6109385;23;20011;-89
2022/07/25 12:13:29;;;;;;;8.85;5.30;;;30.20;79.80;;;-144.05;33.68;125687.94;6105843;23;20010;-91
2022/07/25 12:15:58;;;;;;;5.47;4.47;;;30.10;77.40;;;-144.05;34.14;125687.94;6083453;23;20015;-88
2022/07/25 12:18:27;;;;;;;11.23;4.88;;;30.20;79.90;;;-144.05;33.35;125687.94;6114233;23;20014;-88
2022/07/25 12:20:54;;;;;;;5.15;4.20;;;30.40;78.10;;;-144.05;32.24;125687.94;6071602;23;20014;-86
2022/07/25 12:23:21;;;;;;;10.02;4.28;;;30.60;73.90;;;-144.05;32.68;125687.94;6101268;23;20014;-88
2022/07/25 12:25:48;;;;;;;4.28;3.88;;;30.60;74.60;;;-144.05;32.80;125687.94;6083235;23;20058;-89
2022/07/25 12:28:14;;;;;;;8.05;4.50;;;30.20;75.00;;;-144.05;33.80;125687.94;6110053;23;20017;-89
2022/07/25 12:30:44;;;;;;;5.82;3.83;;;29.70;76.70;;;-144.05;33.84;125687.94;6109950;23;20005;-88
2022/07/25 12:33:12;;;;;;;6.63;4.43;;;29.40;76.80;;;-144.05;34.51;125687.94;6084290;23;20043;-89
2022/07/25 12:35:41;;;;;;;9.75;4.05;;;29.00;77.00;;;-144.05;34.64;125687.94;6107727;23;20390;-90
2022/07/25 12:38:07;;;;;;;5.38;4.05;;;28.90;78.70;;;-144.05;34.34;125687.94;6108152;23;20011;-89
2022/07/25 12:40:33;;;;;;;7.95;4.18;;;29.10;77.80;;;-144.05;33.52;125687.94;6107375;23;20352;-91
2022/07/25 12:43:00;;;;;;;5.50;3.92;;;29.50;77.70;;;-144.05;33.84;125687.94;6105637;23;20006;-88
2022/07/25 12:45:29;;;;;;;7.07;4.13;;;29.60;77.10;;;-144.05;33.28;125687.94;6081867;23;20034;-88
2022/07/25 12:47:55;;;;;;;5.32;3.53;;;29.60;76.30;;;-144.05;33.79;125687.94;6082696;23;20385;-88
2022/07/25 12:50:24;;;;;;;7.68;4.40;;;29.50;76.40;;;-144.05;33.75;125687.94;6106479;23;20014;-89
2022/07/25 12:52:51;;;;;;;8.30;3.83;;;29.50;76.70;;;-144.05;33.30;125687.94;6105020;23;20018;-91
2022/07/25 12:55:19;;;;;;;5.05;3.80;;;29.70;75.60;;;-144.05;33.33;125687.94;6079693;23;20037;-88
2022/07/25 12:58:00;;;;;;;5.72;3.45;;;29.80;76.30;;;-144.05;33.74;125687.94;6086908;23;20007;-88
2022/07/25 13:00:32;;;;;;;4.32;3.78;;;29.80;77.00;;;-144.05;33.96;125687.94;6087593;23;20066;-89
2022/07/25 13:03:05;;;;;;;6.47;3.70;;;29.70;76.60;;;-144.05;33.21;125687.94;6113810;23;20007;-89
2022/07/25 13:05:39;;;;;;;10.90;4.45;;;29.80;74.80;;;-144.05;33.15;125687.94;6110247;23;20356;-90
2022/07/25 13:08:18;;;;;;;6.38;3.20;;;30.20;75.70;;;-144.05;32.71;125687.94;6084056;23;20010;-91
2022/07/25 13:10:56;;;;;;;6.80;3.70;;;30.40;76.00;;;-144.05;32.69;125687.94;6106654;23;20010;-90
2022/07/25 13:13:33;;;;;;;4.28;3.33;;;30.30;75.00;;;-144.05;32.82;125687.94;6108389;23;20022;-91
2022/07/25 13:16:10;;;;;;;5.13;3.67;;;30.40;74.60;;;-144.05;32.78;125687.94;6108743;23;20041;-90
2022/07/25 13:18:43;;;;;;;7.68;3.85;;;30.50;74.20;;;-144.05;33.10;125687.94;6108671;23;20014;-89
2022/07/25 13:21:14;;;;;;;3.47;3.00;;;30.60;75.50;;;-144.05;33.10;125687.94;6084307;23;20011;-89
2022/07/25 13:23:58;;;;;;;5.28;3.22;;;30.60;74.90;;;-144.05;33.80;125687.94;6082461;23;20038;-92
2022/07/25 13:26:40;;;;;;;5.93;3.63;;;31.00;79.10;;;-144.05;32.04;125687.94;6108956;23;20007;-89
2022/07/25 13:29:12;;;;;;;5.72;3.33;;;31.20;73.80;;;-144.05;32.05;125687.94;6111600;23;20071;-90
2022/07/25 13:31:42;;;;;;;4.35;3.22;;;31.10;72.00;;;-144.05;32.71;125687.94;6083738;23;20006;-89
2022/07/25 13:34:28;;;;;;;5.75;3.15;;;31.30;74.40;;;-144.05;31.83;125687.94;6108067;23;20393;-88
2022/07/25 13:37:21;;;;;;;6.03;3.13;;;31.50;71.90;;;-144.05;31.93;125687.94;6108057;23;20033;-89
2022/07/25 13:39:55;;;;;;;4.90;3.10;;;31.60;72.40;;;-144.05;32.69;125687.94;6093633;23;20003;-88
2022/07/25 13:42:26;;;;;;;4.38;2.90;;;31.30;73.90;;;-144.05;32.61;125687.94;6112215;23;20105;-86
2022/07/25 13:45:00;;;;;;;7.70;3.10;;;31.00;73.50;;;-144.05;32.95;125687.94;6090075;23;20013;-90
2022/07/25 13:47:37;;;;;;;5.32;3.30;;;30.40;73.60;;;-144.05;34.47;125687.94;6115608;23;20021;-92
2022/07/25 13:50:14;;;;;;;5.93;2.63;;;29.70;76.90;;;-144.05;35.52;125687.94;6116554;23;20010;-90
2022/07/25 13:52:43;;;;;;;8.80;3.50;;;29.20;79.00;;;-144.05;35.90;125687.94;6090135;23;20014;-89
2022/07/25 13:55:10;;;;;;;7.70;3.15;;;28.90;80.60;;;-144.05;35.76;125687.94;6088035;23;20417;-89
2022/07/25 13:57:42;;;;;;;4.07;2.72;;;28.80;81.50;;;-144.05;35.75;125687.94;6114576;23;20014;-89
2022/07/25 14:00:12;;;;;;;3.15;2.45;;;28.80;81.30;;;-144.05;35.75;125687.94;6113476;23;20089;-89
2022/07/25 14:02:42;;;;;;;6.47;2.83;;;29.20;84.60;;;-144.05;35.13;125687.94;6088731;23;20061;-87
2022/07/25 14:05:09;;;;;;;9.30;3.63;;;29.70;82.60;;;-144.05;34.39;125687.94;6113073;23;20062;-88
2022/07/25 14:07:47;;;;;;;7.30;2.97;;;30.00;79.60;;;-144.05;34.23;125687.94;6095010;23;20017;-87
2022/07/25 14:10:22;;;;;;;4.88;3.35;;;30.00;79.60;;;-144.05;34.28;125687.94;6097494;23;20012;-88
2022/07/25 14:13:21;;;;;;;8.63;3.67;;;30.10;78.50;;;-144.05;34.35;125687.94;6096041;23;20077;-88
2022/07/25 14:16:18;;;;;;;5.13;3.15;;;30.00;78.70;;;-144.05;34.56;125687.94;6118634;23;20006;-88
2022/07/25 14:18:58;;;;;;;5.55;3.10;;;30.10;78.50;;;-144.05;34.22;125687.94;6098057;23;20014;-89
2022/07/25 14:21:47;;;;;;;9.63;3.20;;;29.90;78.60;;;-144.05;35.05;125687.94;6098222;23;20059;-88
2022/07/25 14:24:24;;;;;;;6.38;2.88;;;30.00;81.10;;;-144.05;35.34;125687.94;6097816;23;20026;-88
2022/07/25 14:26:59;;;;;;;3.80;2.60;;;29.60;80.50;;;-144.05;35.67;125687.94;6121559;23;19998;-89
2022/07/25 14:29:37;;;;;;;7.28;2.97;;;29.30;81.80;;;-144.05;35.94;125687.94;6092935;23;20025;-87
2022/07/25 14:32:35;;;;;;;6.70;2.70;;;29.00;82.50;;;-144.05;36.02;125687.94;6090078;23;20006;-89
2022/07/25 14:35:09;;;;;;;7.13;2.70;;;28.80;83.10;;;-144.05;35.80;125687.94;6089502;23;20006;-89
2022/07/25 14:37:46;;;;;;;4.28;2.85;;;28.70;82.40;;;-144.05;35.95;125687.94;6112283;23;20397;-89
2022/07/25 14:40:13;;;;;;;4.57;2.20;;;28.90;82.70;;;-144.05;35.73;125687.94;6085242;23;20037;-92
2022/07/25 14:42:40;;;;;;;4.70;2.28;;;28.90;82.10;;;-144.05;36.16;125687.94;6083642;23;20014;-88
2022/07/25 14:45:12;;;;;;;4.28;2.15;;;28.60;82.30;;;-144.05;36.61;125687.94;6107817;23;20017;-88
2022/07/25 14:47:44;;;;;;;5.82;2.00;;;28.60;85.10;;;-144.05;35.47;125687.94;6106457;23;20026;-88
2022/07/25 14:50:10;;;;;;;5.40;1.83;;;29.00;82.40;;;-144.05;34.99;125687.94;6081131;23;20010;-86
2022/07/25 14:52:36;;;;;;;6.15;2.08;;;29.40;81.90;;;-144.05;35.29;125687.94;6084519;23;20017;-86
2022/07/25 14:55:08;;;;;;;8.13;2.28;;;29.40;82.20;;;-144.05;35.26;125687.94;6108931;23;20026;-86
2022/07/25 14:57:43;;;;;;;4.07;1.80;;;29.20;81.20;;;-144.05;36.12;125687.94;6108181;23;20448;-88
2022/07/25 15:00:14;;;;;;;4.22;2.17;;;29.10;83.90;;;-144.05;35.66;125687.94;6084306;23;20030;-85